Time;durP1;ratioP1;P1;durP2;ratioP2;P2;SDS_P1;SDS_P2;PMS_P1;PMS_P2;Temp;Humidity;BMP_temperature;BMP_pressure;BME280_temperature;BME280_humidity;BME280_pressure;Samples;Min_cycle;Max_cycle;Signal;HPM_P1;HPM_P2
2023/09/05 00:01:59;;;;;;;;;;;17.70;99.90;;;;;;5078806;28;20151;-60
2023/09/05 00:04:25;;;;;;;3.38;1.75;;;17.60;99.90;;;;;;5068237;28;19917;-62
2023/09/05 00:06:50;;;;;;;9.30;2.08;;;17.60;99.90;;;;;;5070324;28;20075;-60
2023/09/05 00:09:18;;;;;;;3.45;1.83;;;17.60;99.90;;;;;;5078729;28;20036;-62
2023/09/05 00:11:45;;;;;;;4.63;1.50;;;17.60;99.90;;;;;;5078830;28;20407;-62
2023/09/05 00:14:11;;;;;;;5.38;1.73;;;17.60;99.90;;;;;;5078376;28;20048;-63
2023/09/05 00:16:37;;;;;;;;;;;17.60;99.90;;;;;;5076199;28;20433;-62
2023/09/05 00:19:04;;;;;;;3.13;1.37;;;17.50;99.90;;;;;;5064823;28;19916;-59
2023/09/05 00:21:30;;;;;;;4.32;1.52;;;17.40;99.90;;;;;;5065066;28;20283;-60
2023/09/05 00:24:14;;;;;;;;;;;17.60;99.90;;;;;;5065440;28;20531;-61
2023/09/05 00:26:40;;;;;;;2.67;1.42;;;17.80;99.90;;;;;;5063000;28;19924;-60
2023/09/05 00:29:05;;;;;;;;;;;18.00;99.90;;;;;;5065599;28;20040;-62
2023/09/05 00:31:32;;;;;;;2.10;1.17;;;18.10;99.90;;;;;;5062347;28;19961;-61
2023/09/05 00:33:58;;;;;;;8.07;1.63;;;18.20;99.90;;;;;;5063569;28;20481;-59
2023/09/05 00:36:26;;;;;;;;;;;18.30;99.90;;;;;;5064656;28;20090;-63
2023/09/05 00:38:51;;;;;;;2.45;1.45;;;18.30;99.90;;;;;;5065262;28;20736;-61
2023/09/05 00:47:15;;;;;;;6.78;1.33;;;18.30;99.90;;;;;;4976139;28;20066;-64
2023/09/05 00:49:47;;;;;;;3.42;1.40;;;18.40;99.90;;;;;;4981984;28;20074;-64
2023/09/05 00:52:13;;;;;;;5.95;1.85;;;18.40;99.90;;;;;;4984663;28;20041;-63
2023/09/05 00:54:40;;;;;;;6.57;1.90;;;18.40;99.90;;;;;;4983256;28;20050;-64
2023/09/05 00:57:08;;;;;;;2.55;1.35;;;18.40;99.90;;;;;;4984063;28;20497;-64
2023/09/05 00:59:33;;;;;;;3.40;1.30;;;18.50;99.90;;;;;;4985342;28;20078;-64
2023/09/05 01:01:59;;;;;;;;;;;18.50;99.90;;;;;;4984269;28;20038;-64
2023/09/05 01:04:25;;;;;;;4.00;1.58;;;18.50;99.90;;;;;;4985533;28;19941;-64
2023/09/05 01:07:12;;;;;;;2.92;1.40;;;18.50;99.90;;;;;;4984887;28;20050;-64
2023/09/05 01:09:42;;;;;;;2.92;1.42;;;18.60;99.90;;;;;;4986805;28;20513;-64
2023/09/05 01:12:08;;;;;;;6.97;1.88;;;18.60;99.90;;;;;;4983909;28;20030;-64
2023/09/05 01:14:34;;;;;;;;;;;18.60;99.90;;;;;;4986182;28;20498;-64
2023/09/05 01:17:05;;;;;;;2.60;1.63;;;18.60;99.90;;;;;;4981934;28;20008;-63
2023/09/05 01:19:34;;;;;;;3.35;1.90;;;18.60;99.90;;;;;;4984527;28;20042;-64
2023/09/05 01:22:24;;;;;;;2.15;1.20;;;18.50;99.90;;;;;;4984942;28;20046;-64
2023/09/05 01:24:50;;;;;;;2.47;1.42;;;18.60;99.90;;;;;;4985263;28;20093;-64
2023/09/05 01:27:22;;;;;;;3.10;1.70;;;18.60;99.90;;;;;;4984968;28;20053;-65
2023/09/05 01:29:49;;;;;;;3.00;1.92;;;18.60;99.90;;;;;;4983891;28;20045;-65
2023/09/05 01:32:16;;;;;;;4.03;1.40;;;18.60;99.90;;;;;;4984369;28;20045;-64
2023/09/05 01:34:42;;;;;;;3.17;1.63;;;18.60;99.90;;;;;;4983545;28;20576;-65
2023/09/05 01:37:10;;;;;;;;;;;18.60;99.90;;;;;;4986869;28;20030;-65
2023/09/05 01:39:37;;;;;;;2.95;1.33;;;18.60;99.90;;;;;;4984393;28;20000;-65
2023/09/05 01:42:03;;;;;;;3.60;1.45;;;18.60;99.90;;;;;;4985513;28;20101;-65
2023/09/05 01:44:28;;;;;;;;;;;18.60;99.90;;;;;;4985354;28;20650;-63
2023/09/05 01:46:54;;;;;;;3.05;1.40;;;18.60;99.90;;;;;;4978961;28;19926;-63
2023/09/05 01:49:19;;;;;;;4.00;1.70;;;18.60;99.90;;;;;;4985317;28;20750;-63
2023/09/05 01:51:45;;;;;;;;;;;18.60;99.90;;;;;;4987084;28;20026;-63
2023/09/05 01:54:10;;;;;;;3.35;1.67;;;18.70;99.90;;;;;;4984571;28;19924;-65
2023/09/05 01:56:36;;;;;;;2.47;1.30;;;18.60;99.90;;;;;;4987040;28;20057;-64
2023/09/05 01:59:02;;;;;;;3.33;1.20;;;18.60;99.90;;;;;;4968418;28;20504;-64
2023/09/05 02:01:27;;;;;;;;;;;18.60;99.90;;;;;;4985159;28;20064;-64
2023/09/05 02:03:53;;;;;;;3.65;1.52;;;18.50;99.90;;;;;;4987190;28;19957;-63
2023/09/05 02:06:18;;;;;;;;;;;18.50;99.90;;;;;;4990191;28;20096;-64
2023/09/05 02:08:46;;;;;;;2.70;1.50;;;18.40;99.90;;;;;;4987626;28;19921;-64
2023/09/05 02:11:12;;;;;;;6.88;1.45;;;18.50;99.90;;;;;;4985872;28;20065;-63
2023/09/05 02:13:37;;;;;;;;;;;18.50;99.90;;;;;;4987448;28;20349;-64
2023/09/05 02:16:03;;;;;;;3.65;1.50;;;18.50;99.90;;;;;;4983000;28;19917;-64
2023/09/05 02:18:29;;;;;;;2.80;1.50;;;18.50;99.90;;;;;;4992189;28;20125;-62
2023/09/05 02:21:00;;;;;;;5.45;1.80;;;18.40;99.90;;;;;;4985087;28;20109;-64
2023/09/05 02:23:26;;;;;;;3.10;1.20;;;18.40;99.90;;;;;;4995219;28;20144;-64
2023/09/05 02:25:59;;;;;;;4.82;1.80;;;18.40;99.90;;;;;;4985900;28;20053;-65
2023/09/05 02:28:25;;;;;;;5.10;1.60;;;18.40;99.90;;;;;;4997186;28;20069;-64
2023/09/05 02:30:52;;;;;;;4.88;1.40;;;18.40;99.90;;;;;;4984007;28;20054;-64
2023/09/05 02:33:19;;;;;;;4.00;1.77;;;18.40;99.90;;;;;;4993260;28;20041;-63
2023/09/05 02:35:44;;;;;;;3.17;1.27;;;18.30;99.90;;;;;;4984150;28;20042;-64
2023/09/05 02:38:10;;;;;;;;;;;18.30;99.90;;;;;;4991833;28;20053;-64
2023/09/05 02:40:36;;;;;;;2.78;1.10;;;18.30;99.90;;;;;;4984355;28;19918;-64
2023/09/05 02:43:01;;;;;;;5.03;1.45;;;18.30;99.90;;;;;;4993350;28;20044;-64
2023/09/05 02:45:27;;;;;;;3.53;1.60;;;18.30;99.90;;;;;;4941248;28;20053;-64
2023/09/05 02:47:54;;;;;;;3.08;1.40;;;18.20;99.90;;;;;;4984195;28;20574;-64
2023/09/05 02:50:20;;;;;;;5.05;1.30;;;18.20;99.90;;;;;;4980987;28;20038;-64
2023/09/05 02:52:45;;;;;;;;;;;18.20;99.90;;;;;;4987666;28;20045;-65
2023/09/05 02:55:11;;;;;;;4.47;1.50;;;18.20;99.90;;;;;;4983920;28;20274;-64
2023/09/05 02:57:36;;;;;;;3.95;1.50;;;18.10;99.90;;;;;;4984918;28;20097;-63
2023/09/05 03:00:04;;;;;;;;;;;18.10;99.90;;;;;;4983945;28;20078;-64
2023/09/05 03:02:30;;;;;;;4.72;1.40;;;18.10;99.90;;;;;;4983294;28;20337;-64
2023/09/05 03:04:55;;;;;;;;;;;18.20;99.90;;;;;;4962437;28;20133;-64
2023/09/05 03:07:21;;;;;;;1.77;1.23;;;18.20;99.90;;;;;;4984269;28;20397;-65
2023/09/05 03:09:51;;;;;;;9.23;1.15;;;18.10;99.90;;;;;;4983007;28;20152;-65
2023/09/05 03:12:17;;;;;;;3.45;1.00;;;18.10;99.90;;;;;;4984236;28;20050;-65
2023/09/05 03:14:43;;;;;;;;;;;18.10;99.90;;;;;;4984414;28;20092;-64
2023/09/05 03:17:13;;;;;;;5.27;1.20;;;18.00;99.90;;;;;;4984779;28;20048;-64
2023/09/05 03:19:42;;;;;;;4.13;1.30;;;18.00;99.90;;;;;;4983017;28;20038;-64
2023/09/05 03:22:08;;;;;;;4.80;1.00;;;18.00;99.90;;;;;;4984683;28;20062;-63
2023/09/05 03:24:34;;;;;;;;;;;18.00;99.90;;;;;;4983990;28;20442;-63
2023/09/05 03:27:00;;;;;;;4.03;1.10;;;18.00;99.90;;;;;;4984447;28;19957;-63
2023/09/05 03:29:26;;;;;;;;;;;18.10;99.90;;;;;;4984208;28;20073;-63
2023/09/05 03:31:55;;;;;;;1.52;1.10;;;18.10;99.90;;;;;;4981996;28;19914;-64
2023/09/05 03:34:20;;;;;;;3.08;1.20;;;18.00;99.90;;;;;;4984324;28;20041;-63
2023/09/05 03:36:47;;;;;;;;;;;18.10;99.90;;;;;;4985570;28;20038;-63
2023/09/05 03:39:13;;;;;;;2.55;1.30;;;18.10;99.90;;;;;;4983274;28;19955;-63
2023/09/05 03:41:38;;;;;;;;;;;18.10;99.90;;;;;;4983658;28;20034;-63
2023/09/05 03:44:04;;;;;;;1.73;1.10;;;18.10;99.90;;;;;;4982827;28;19918;-63
2023/09/05 03:46:30;;;;;;;;;;;18.20;99.90;;;;;;4984242;28;20414;-64
2023/09/05 03:48:57;;;;;;;3.60;1.30;;;18.10;99.90;;;;;;4983581;28;19980;-63
2023/09/05 03:51:22;;;;;;;2.42;1.45;;;18.10;99.90;;;;;;4983984;28;20038;-64
2023/09/05 03:53:49;;;;;;;;;;;18.10;99.90;;;;;;4986729;28;20053;-64
2023/09/05 03:56:15;;;;;;;3.30;1.35;;;18.10;99.90;;;;;;4985984;28;19988;-63
2023/09/05 03:58:40;;;;;;;4.25;1.67;;;18.10;99.90;;;;;;4980859;28;20109;-64
2023/09/05 04:01:14;;;;;;;3.75;1.30;;;18.10;99.90;;;;;;4984174;28;20030;-63
2023/09/05 04:03:39;;;;;;;2.28;1.50;;;18.20;99.90;;;;;;4996209;28;20164;-63
2023/09/05 04:06:05;;;;;;;;;;;18.20;99.90;;;;;;4988965;28;20610;-64
2023/09/05 04:08:30;;;;;;;3.33;1.58;;;18.20;99.90;;;;;;4994752;28;20525;-63
2023/09/05 04:11:00;;;;;;;2.55;1.33;;;18.20;99.90;;;;;;4987093;28;20050;-65
2023/09/05 04:13:29;;;;;;;3.75;1.52;;;18.20;99.90;;;;;;4989501;28;20038;-64
2023/09/05 04:15:55;;;;;;;2.80;1.38;;;18.20;99.90;;;;;;4988354;28;20049;-63
2023/09/05 04:18:22;;;;;;;;;;;18.20;99.90;;;;;;4995471;28;20050;-64
2023/09/05 04:20:56;;;;;;;2.13;1.27;;;18.20;99.90;;;;;;4983641;28;19922;-64
2023/09/05 04:23:22;;;;;;;3.38;1.05;;;18.20;99.90;;;;;;5001440;28;20058;-64
2023/09/05 04:25:54;;;;;;;;;;;18.20;99.90;;;;;;4988231;28;20042;-63
2023/09/05 04:28:20;;;;;;;2.13;1.20;;;18.20;99.90;;;;;;4983116;28;19922;-64
2023/09/05 04:30:45;;;;;;;;;;;18.10;99.90;;;;;;4987961;28;20039;-63
2023/09/05 04:33:11;;;;;;;4.20;1.20;;;18.20;99.90;;;;;;4994404;28;19935;-65
2023/09/05 04:35:38;;;;;;;;;;;18.20;99.90;;;;;;4986242;28;20040;-64
2023/09/05 04:38:03;;;;;;;6.10;1.60;;;18.20;99.90;;;;;;4987259;28;19922;-65
2023/09/05 04:40:29;;;;;;;;;;;18.20;99.20;;;;;;4988307;28;20053;-63
2023/09/05 04:42:55;;;;;;;2.70;1.35;;;18.30;99.80;;;;;;4994148;28;19983;-64
2023/09/05 04:45:20;;;;;;;;;;;18.30;98.50;;;;;;4990907;28;20434;-63
2023/09/05 04:47:46;;;;;;;2.05;1.25;;;18.30;98.40;;;;;;4995787;28;19918;-64
2023/09/05 04:50:11;;;;;;;8.15;1.52;;;18.40;98.80;;;;;;4988012;28;20449;-64
2023/09/05 04:52:37;;;;;;;3.00;1.70;;;18.30;99.90;;;;;;5001089;28;20038;-64
2023/09/05 04:55:03;;;;;;;3.15;1.50;;;18.10;99.90;;;;;;4990420;28;20445;-64
2023/09/05 04:57:28;;;;;;;3.05;2.03;;;18.10;99.80;;;;;;4998803;28;20158;-64
2023/09/05 04:59:57;;;;;;;3.15;1.90;;;18.20;99.10;;;;;;4992446;28;20045;-64
2023/09/05 05:02:24;;;;;;;3.00;2.20;;;18.20;99.90;;;;;;4994892;28;20056;-63
2023/09/05 05:04:50;;;;;;;3.92;1.80;;;18.20;99.90;;;;;;4991472;28;20049;-64
2023/09/05 05:07:16;;;;;;;2.58;1.70;;;18.20;99.90;;;;;;4994331;28;20048;-63
2023/09/05 05:09:42;;;;;;;;;;;18.20;99.90;;;;;;4987198;28;20034;-65
2023/09/05 05:12:10;;;;;;;2.58;1.63;;;18.20;99.90;;;;;;4988048;28;19961;-65
2023/09/05 05:14:36;;;;;;;3.22;2.10;;;18.40;99.90;;;;;;4986458;28;20046;-65
2023/09/05 05:17:02;;;;;;;;;;;18.90;99.90;;;;;;4994418;28;20065;-65
2023/09/05 05:19:27;;;;;;;4.18;2.15;;;19.60;99.90;;;;;;4993703;28;20923;-64
2023/09/05 05:21:53;;;;;;;7.20;2.55;;;20.00;99.60;;;;;;4986910;28;20126;-63
2023/09/05 05:24:19;;;;;;;3.08;2.00;;;20.80;97.60;;;;;;4993858;28;20042;-64
2023/09/05 05:26:45;;;;;;;2.38;1.77;;;21.90;96.40;;;;;;4987075;28;20113;-64
2023/09/05 05:29:11;;;;;;;2.65;1.88;;;22.60;95.60;;;;;;4986280;28;20053;-64
2023/09/05 05:31:38;;;;;;;3.47;2.03;;;22.30;95.20;;;;;;4978444;28;20057;-65
2023/09/05 05:34:03;;;;;;;4.38;2.40;;;21.60;96.00;;;;;;4989640;28;20034;-61
2023/09/05 05:36:29;;;;;;;4.55;2.40;;;21.30;96.70;;;;;;4987907;28;20065;-63
2023/09/05 05:38:56;;;;;;;5.43;2.00;;;21.80;96.30;;;;;;4988325;28;20149;-62
2023/09/05 05:41:22;;;;;;;2.63;1.90;;;21.90;95.90;;;;;;4986348;28;20054;-63
2023/09/05 05:43:47;;;;;;;3.85;2.13;;;21.70;96.00;;;;;;4987770;28;20096;-63
2023/09/05 05:46:14;;;;;;;2.50;1.98;;;21.20;96.70;;;;;;4986707;28;20046;-65
2023/09/05 05:48:40;;;;;;;3.30;2.03;;;21.00;97.10;;;;;;4983052;28;20105;-63
2023/09/05 05:51:06;;;;;;;2.70;2.10;;;20.70;98.20;;;;;;4981751;28;20045;-66
2023/09/05 05:53:32;;;;;;;4.18;2.22;;;20.70;98.60;;;;;;4977228;28;20026;-63
2023/09/05 05:55:58;;;;;;;2.95;2.20;;;20.40;98.60;;;;;;4991291;28;20727;-63
2023/09/05 05:58:24;;;;;;;3.75;2.15;;;20.40;98.50;;;;;;4985773;28;20123;-63
2023/09/05 06:00:52;;;;;;;3.75;2.45;;;20.40;98.90;;;;;;4982443;28;20741;-64
2023/09/05 06:03:18;;;;;;;3.08;2.20;;;20.60;98.00;;;;;;4985048;28;20054;-61
2023/09/05 06:05:45;;;;;;;4.53;2.50;;;20.70;98.40;;;;;;4977140;28;20048;-63
2023/09/05 06:08:11;;;;;;;4.07;2.30;;;20.70;97.70;;;;;;4992788;28;20033;-61
2023/09/05 06:10:36;;;;;;;2.45;1.92;;;20.90;97.70;;;;;;4986667;28;20030;-63
2023/09/05 06:13:04;;;;;;;5.65;2.08;;;21.60;97.00;;;;;;4994168;28;20038;-62
2023/09/05 06:15:31;;;;;;;6.68;2.00;;;23.00;93.80;;;;;;4992838;28;20030;-63
2023/09/05 06:17:57;;;;;;;2.67;1.73;;;23.10;93.20;;;;;;4985367;28;20642;-62
2023/09/05 06:20:22;;;;;;;4.13;2.22;;;22.70;94.00;;;;;;4991465;28;20041;-63
2023/09/05 06:22:49;;;;;;;2.38;1.83;;;22.70;94.50;;;;;;4998316;28;20103;-63
2023/09/05 06:25:16;;;;;;;4.07;2.05;;;22.00;94.50;;;;;;4987087;28;20034;-62
2023/09/05 06:27:43;;;;;;;4.35;1.80;;;21.60;95.90;;;;;;4992908;28;20070;-63
2023/09/05 06:30:12;;;;;;;4.10;2.05;;;21.50;96.00;;;;;;4986174;28;20042;-62
2023/09/05 06:32:39;;;;;;;3.05;1.90;;;21.30;96.90;;;;;;4988035;28;20081;-61
2023/09/05 06:35:07;;;;;;;5.90;2.17;;;21.10;96.50;;;;;;4994403;28;20497;-62
2023/09/05 06:37:34;;;;;;;4.15;2.42;;;21.00;97.10;;;;;;4996844;28;20164;-61
2023/09/05 06:40:00;;;;;;;3.38;1.92;;;20.90;96.70;;;;;;4987981;28;20078;-64
2023/09/05 06:42:26;;;;;;;3.78;2.28;;;20.90;97.20;;;;;;4993815;28;20045;-62
2023/09/05 06:44:52;;;;;;;5.60;2.00;;;20.80;97.90;;;;;;4995716;28;20045;-62
2023/09/05 06:47:18;;;;;;;4.60;2.28;;;20.80;97.60;;;;;;5000173;28;20038;-62
2023/09/05 06:49:44;;;;;;;3.88;1.92;;;20.80;97.10;;;;;;4976936;28;20120;-62
2023/09/05 06:52:09;;;;;;;3.78;1.85;;;20.80;97.60;;;;;;4990212;28;20035;-61
2023/09/05 06:54:35;;;;;;;5.93;2.03;;;20.80;97.90;;;;;;4986986;28;20034;-62
2023/09/05 06:57:01;;;;;;;2.95;1.70;;;20.80;97.60;;;;;;4988432;28;20112;-63
2023/09/05 06:59:27;;;;;;;3.22;1.88;;;20.90;97.30;;;;;;4985246;28;20039;-62
2023/09/05 07:01:52;;;;;;;4.55;2.40;;;20.80;97.00;;;;;;4984531;28;20538;-65
2023/09/05 07:04:18;;;;;;;2.97;1.80;;;20.80;97.20;;;;;;4980985;28;20035;-61
2023/09/05 07:06:45;;;;;;;2.88;1.60;;;20.90;96.60;;;;;;4984921;28;20561;-62
2023/09/05 07:09:11;;;;;;;2.35;1.58;;;20.90;97.10;;;;;;4976783;28;20042;-62
2023/09/05 07:11:37;;;;;;;3.22;1.67;;;20.90;96.40;;;;;;4984961;28;20044;-67
2023/09/05 07:14:03;;;;;;;2.53;1.70;;;20.90;96.90;;;;;;4983514;28;20046;-64
2023/09/05 07:16:29;;;;;;;4.53;1.88;;;20.80;96.40;;;;;;4981706;28;20042;-63
2023/09/05 07:18:55;;;;;;;2.22;1.38;;;20.90;96.90;;;;;;4983282;28;20065;-64
2023/09/05 07:21:21;;;;;;;3.63;1.60;;;20.90;97.20;;;;;;4983747;28;20050;-63
2023/09/05 07:23:46;;;;;;;5.03;1.55;;;20.90;96.10;;;;;;4984152;28;20113;-63
2023/09/05 07:26:12;;;;;;;1.80;1.30;;;20.90;96.20;;;;;;4983166;28;20046;-63
2023/09/05 07:28:38;;;;;;;3.33;1.55;;;20.90;96.60;;;;;;4986863;28;20038;-64
2023/09/05 07:31:04;;;;;;;4.25;1.50;;;20.90;96.50;;;;;;4987282;28;20134;-64
2023/09/05 07:33:30;;;;;;;1.80;0.98;;;21.00;96.70;;;;;;4990681;28;20132;-63
2023/09/05 07:35:55;;;;;;;1.77;1.15;;;21.00;96.30;;;;;;4988189;28;20112;-64
2023/09/05 07:38:21;;;;;;;2.65;1.40;;;21.00;96.50;;;;;;4988936;28;20129;-62
2023/09/05 07:40:50;;;;;;;2.13;1.00;;;21.00;97.50;;;;;;4987843;28;20069;-64
2023/09/05 07:43:15;;;;;;;1.98;1.23;;;21.10;96.70;;;;;;4986690;28;20038;-63
2023/09/05 07:45:41;;;;;;;1.45;1.10;;;21.10;96.70;;;;;;4992882;28;20462;-63
2023/09/05 07:48:08;;;;;;;1.60;1.10;;;21.10;96.20;;;;;;4987351;28;20117;-61
2023/09/05 07:50:35;;;;;;;1.25;1.00;;;21.10;96.10;;;;;;4988041;28;20125;-62
2023/09/05 07:53:01;;;;;;;2.10;1.10;;;21.10;95.90;;;;;;5004691;28;20096;-61
2023/09/05 07:55:26;;;;;;;3.22;1.10;;;21.20;96.10;;;;;;4985541;28;20909;-64
2023/09/05 07:57:52;;;;;;;2.88;0.90;;;21.30;95.90;;;;;;4987951;28;20038;-61
2023/09/05 08:00:19;;;;;;;2.03;1.38;;;21.60;96.00;;;;;;4985367;28;20039;-65
2023/09/05 08:02:45;;;;;;;1.60;1.00;;;21.70;95.10;;;;;;4984707;28;22101;-66
2023/09/05 08:05:11;;;;;;;1.65;0.95;;;22.00;94.50;;;;;;4988361;28;20059;-63
2023/09/05 08:07:38;;;;;;;1.40;1.00;;;22.60;94.20;;;;;;4985864;28;20132;-65
2023/09/05 08:10:05;;;;;;;0.93;0.73;;;23.30;92.30;;;;;;4984612;28;20120;-65
2023/09/05 08:12:31;;;;;;;4.55;0.77;;;24.10;91.50;;;;;;4963547;28;20041;-65
2023/09/05 08:14:57;;;;;;;1.48;0.93;;;25.70;86.80;;;;;;4982202;28;20042;-63
2023/09/05 08:17:22;;;;;;;1.65;1.05;;;27.20;85.00;;;;;;4985500;28;20050;-65
2023/09/05 08:19:48;;;;;;;2.97;1.10;;;28.30;80.20;;;;;;4984955;28;20458;-64
2023/09/05 08:22:14;;;;;;;3.13;1.08;;;29.30;76.10;;;;;;4992757;28;20044;-64
2023/09/05 08:24:40;;;;;;;2.47;1.08;;;29.30;72.80;;;;;;4989683;28;20502;-64
2023/09/05 08:27:05;;;;;;;1.65;0.65;;;29.80;69.00;;;;;;4992244;28;20124;-63
2023/09/05 08:29:32;;;;;;;3.80;1.10;;;29.70;69.40;;;;;;4995195;28;20065;-63
2023/09/05 08:31:58;;;;;;;0.88;0.77;;;30.10;69.20;;;;;;4983396;28;20042;-62
2023/09/05 08:34:24;;;;;;;1.30;0.90;;;30.00;69.80;;;;;;4994161;28;20054;-62
2023/09/05 08:36:50;;;;;;;2.40;1.25;;;29.50;69.20;;;;;;4989476;28;20049;-63
2023/09/05 08:39:16;;;;;;;1.42;0.82;;;28.10;70.60;;;;;;4988609;28;20110;-63
2023/09/05 08:41:42;;;;;;;1.35;0.82;;;26.40;76.00;;;;;;5002014;28;20044;-62
2023/09/05 08:44:08;;;;;;;2.65;0.90;;;25.50;80.40;;;;;;4996459;28;20060;-64
2023/09/05 08:46:36;;;;;;;2.80;1.30;;;24.70;82.70;;;;;;4994682;28;20769;-64
2023/09/05 08:49:01;;;;;;;1.27;0.90;;;24.30;85.70;;;;;;4986181;28;20042;-63
2023/09/05 08:51:32;;;;;;;1.20;0.70;;;24.10;87.00;;;;;;5000761;28;20417;-62
2023/09/05 08:54:01;;;;;;;2.20;0.73;;;24.00;87.50;;;;;;4993094;28;20069;-63
2023/09/05 08:56:27;;;;;;;1.48;0.95;;;23.80;87.70;;;;;;4991289;28;20049;-63
2023/09/05 08:58:54;;;;;;;2.10;1.08;;;23.70;87.70;;;;;;4999549;28;20038;-61
2023/09/05 09:01:20;;;;;;;2.35;1.10;;;23.70;89.00;;;;;;4980904;28;20047;-61
2023/09/05 09:03:46;;;;;;;1.20;0.88;;;23.80;90.20;;;;;;4979561;28;20046;-63
2023/09/05 09:06:12;;;;;;;3.15;1.13;;;23.70;90.10;;;;;;4988039;28;20034;-63
2023/09/05 09:08:43;;;;;;;4.50;1.35;;;23.90;90.60;;;;;;4999873;28;20235;-64
2023/09/05 09:11:10;;;;;;;2.20;1.10;;;23.90;90.70;;;;;;4991383;28;20061;-64
2023/09/05 09:13:40;;;;;;;1.55;0.85;;;24.10;91.20;;;;;;4989038;28;20041;-63
2023/09/05 09:16:06;;;;;;;3.70;0.77;;;24.00;90.00;;;;;;4985645;28;20100;-64
2023/09/05 09:18:32;;;;;;;1.73;1.10;;;23.90;88.90;;;;;;5000790;28;20069;-65
2023/09/05 09:21:03;;;;;;;1.35;0.80;;;23.90;90.50;;;;;;4988631;28;20045;-64
2023/09/05 09:23:33;;;;;;;2.33;1.00;;;24.00;89.80;;;;;;5002867;28;20391;-63
2023/09/05 09:25:59;;;;;;;2.50;0.70;;;24.10;88.50;;;;;;4980738;28;20120;-63
2023/09/05 09:28:29;;;;;;;1.02;0.70;;;24.20;88.80;;;;;;4993388;28;20049;-63
2023/09/05 09:31:01;;;;;;;2.28;0.75;;;24.20;87.40;;;;;;4990165;28;20041;-63
2023/09/05 09:33:29;;;;;;;3.13;1.00;;;24.20;88.20;;;;;;4997831;28;20037;-63
2023/09/05 09:36:01;;;;;;;1.30;0.63;;;24.30;87.90;;;;;;4985338;28;20054;-63
2023/09/05 09:38:28;;;;;;;1.13;0.60;;;24.40;87.00;;;;;;4990695;28;20127;-64
2023/09/05 09:40:55;;;;;;;1.92;0.80;;;24.40;89.20;;;;;;4985130;28;20088;-64
2023/09/05 09:43:21;;;;;;;1.30;0.68;;;24.50;87.70;;;;;;4992282;28;20744;-65
2023/09/05 09:45:46;;;;;;;0.70;0.60;;;24.50;90.00;;;;;;4986855;28;20049;-63
2023/09/05 09:48:15;;;;;;;1.38;0.80;;;24.50;87.50;;;;;;4999785;28;20034;-64
2023/09/05 09:50:45;;;;;;;2.40;0.85;;;24.50;87.70;;;;;;4978670;28;20062;-64
2023/09/05 09:53:15;;;;;;;2.00;0.88;;;24.60;87.40;;;;;;4996601;28;20057;-64
2023/09/05 09:55:44;;;;;;;0.85;0.63;;;24.50;86.00;;;;;;4988582;28;20054;-65
2023/09/05 09:58:14;;;;;;;3.67;2.65;;;24.50;87.40;;;;;;4989767;28;20034;-63
2023/09/05 10:00:46;;;;;;;2.25;1.50;;;24.50;87.90;;;;;;4986225;28;20042;-64
2023/09/05 10:03:16;;;;;;;2.00;1.10;;;24.70;88.30;;;;;;4990438;28;20041;-65
2023/09/05 10:05:43;;;;;;;1.63;0.73;;;24.90;89.40;;;;;;4988877;28;20517;-62
2023/09/05 10:08:12;;;;;;;1.00;0.80;;;24.90;88.60;;;;;;4996804;28;20072;-63
2023/09/05 10:10:41;;;;;;;1.17;1.08;;;25.00;89.70;;;;;;4984889;28;20682;-64
2023/09/05 10:13:10;;;;;;;3.83;0.65;;;24.90;88.90;;;;;;4986642;28;20035;-64
2023/09/05 10:15:37;;;;;;;4.00;1.05;;;25.00;89.60;;;;;;4989881;28;20069;-63
2023/09/05 10:18:05;;;;;;;1.75;0.88;;;24.90;88.90;;;;;;4985284;28;20057;-64
2023/09/05 10:20:33;;;;;;;2.97;1.23;;;25.00;88.70;;;;;;4988541;28;20556;-64
2023/09/05 10:22:59;;;;;;;2.42;1.10;;;25.10;89.00;;;;;;5000868;28;20037;-63
2023/09/05 10:25:26;;;;;;;1.35;0.80;;;25.10;90.00;;;;;;4988770;28;20042;-63
2023/09/05 10:27:51;;;;;;;4.45;1.45;;;25.10;88.00;;;;;;4993852;28;20505;-63
2023/09/05 10:30:18;;;;;;;2.35;1.50;;;25.10;90.10;;;;;;4991722;28;20037;-63
2023/09/05 10:32:47;;;;;;;3.30;0.90;;;25.10;89.60;;;;;;4993931;28;20053;-64
2023/09/05 10:35:18;;;;;;;2.08;1.00;;;25.00;90.10;;;;;;4978311;28;20062;-64
2023/09/05 10:37:55;;;;;;;0.90;0.80;;;25.10;90.70;;;;;;4993862;28;20037;-63
2023/09/05 10:40:35;;;;;;;4.43;1.33;;;25.10;90.00;;;;;;4987695;28;20038;-65
2023/09/05 10:43:05;;;;;;;4.25;1.02;;;25.10;89.90;;;;;;4977590;28;20038;-64
2023/09/05 10:45:33;;;;;;;2.83;0.95;;;25.00;90.70;;;;;;4985866;28;20045;-64
2023/09/05 10:48:11;;;;;;;2.90;1.13;;;25.20;90.60;;;;;;5002549;28;20046;-63
2023/09/05 10:51:10;;;;;;;2.28;0.82;;;25.20;89.70;;;;;;4985692;28;20716;-64
2023/09/05 10:53:37;;;;;;;3.60;0.93;;;25.20;90.90;;;;;;4983410;28;20491;-64
2023/09/05 10:56:03;;;;;;;2.13;1.30;;;25.30;90.40;;;;;;4990067;28;20046;-64
2023/09/05 10:58:53;;;;;;;2.67;1.08;;;25.40;90.30;;;;;;4989919;28;20050;-64
2023/09/05 11:01:52;;;;;;;1.30;1.00;;;25.40;91.00;;;;;;4985148;28;20046;-63
2023/09/05 11:04:20;;;;;;;7.55;1.20;;;25.40;90.60;;;;;;4974357;28;20034;-64
2023/09/05 11:06:54;;;;;;;2.63;0.95;;;25.40;90.40;;;;;;4984992;28;20410;-64
2023/09/05 11:09:20;;;;;;;2.05;1.10;;;25.30;89.40;;;;;;4984231;28;20173;-64
2023/09/05 11:11:46;;;;;;;1.25;0.95;;;25.20;90.30;;;;;;4984698;28;20464;-64
2023/09/05 11:14:11;;;;;;;1.50;1.25;;;25.30;90.60;;;;;;4983941;28;20038;-65
2023/09/05 11:16:49;;;;;;;2.65;1.25;;;25.30;90.50;;;;;;4984482;28;20047;-64
2023/09/05 11:19:53;;;;;;;2.53;1.27;;;25.30;91.10;;;;;;4976970;28;20046;-63
2023/09/05 11:22:23;;;;;;;5.78;1.48;;;25.20;90.80;;;;;;4900763;29;20461;-64
2023/09/05 11:24:54;;;;;;;2.20;1.23;;;25.20;91.60;;;;;;4904049;29;20653;-64
2023/09/05 11:27:19;;;;;;;1.40;1.10;;;25.20;91.10;;;;;;4945551;28;20054;-64
2023/09/05 11:29:46;;;;;;;3.78;1.10;;;25.20;92.10;;;;;;4984302;28;20042;-64
2023/09/05 11:32:14;;;;;;;3.00;1.25;;;25.20;92.50;;;;;;4980620;28;20593;-62
2023/09/05 11:34:44;;;;;;;1.60;1.25;;;25.40;91.40;;;;;;4984217;28;20042;-64
2023/09/05 11:37:15;;;;;;;2.45;1.40;;;25.40;92.00;;;;;;4985069;28;20066;-62
2023/09/05 11:39:40;;;;;;;2.10;1.30;;;25.50;91.20;;;;;;4984519;28;20077;-63
2023/09/05 11:42:30;;;;;;;2.38;1.42;;;25.40;91.60;;;;;;4985628;28;21549;-64
2023/09/05 11:44:57;;;;;;;1.60;1.20;;;25.50;91.60;;;;;;4984136;28;20058;-65
2023/09/05 11:47:25;;;;;;;1.80;1.30;;;25.40;91.80;;;;;;4986283;28;20085;-64
2023/09/05 11:49:52;;;;;;;3.30;1.20;;;25.60;92.90;;;;;;4984332;28;20038;-63
2023/09/05 11:52:19;;;;;;;2.15;1.33;;;25.60;92.00;;;;;;4991077;28;20045;-63
2023/09/05 11:54:48;;;;;;;5.95;1.30;;;25.60;91.10;;;;;;4984453;28;20088;-63
2023/09/05 11:57:16;;;;;;;3.67;1.70;;;25.70;92.60;;;;;;4984207;28;20046;-63
2023/09/05 11:59:42;;;;;;;1.48;1.08;;;25.70;91.80;;;;;;4981976;28;20041;-64
2023/09/05 12:02:09;;;;;;;4.60;1.23;;;25.70;92.60;;;;;;4981651;28;20034;-64
2023/09/05 12:04:37;;;;;;;3.35;1.20;;;25.70;91.90;;;;;;4983602;28;20057;-63
2023/09/05 12:07:06;;;;;;;2.95;1.35;;;25.80;91.40;;;;;;4972276;28;20046;-63
2023/09/05 12:09:32;;;;;;;4.88;1.13;;;25.90;91.60;;;;;;4989693;28;20092;-62
2023/09/05 12:12:12;;;;;;;3.65;1.55;;;25.80;92.50;;;;;;4985078;28;20125;-64
2023/09/05 12:14:48;;;;;;;2.05;1.20;;;25.70;92.00;;;;;;4988067;28;20049;-64
2023/09/05 12:17:18;;;;;;;5.95;1.35;;;25.70;92.90;;;;;;4994651;28;20049;-63
2023/09/05 12:19:45;;;;;;;1.35;1.00;;;25.70;92.30;;;;;;4990918;28;20042;-64
2023/09/05 12:22:26;;;;;;;3.08;1.23;;;25.90;91.80;;;;;;4995399;28;20208;-64
2023/09/05 12:25:11;;;;;;;6.35;1.40;;;25.80;91.10;;;;;;4990817;28;20050;-64
2023/09/05 12:27:38;;;;;;;3.00;1.42;;;25.90;91.40;;;;;;4997413;28;20413;-65
2023/09/05 12:30:06;;;;;;;2.90;1.17;;;25.70;91.90;;;;;;4989742;28;20053;-65
2023/09/05 12:32:34;;;;;;;2.30;1.20;;;25.70;91.90;;;;;;4990951;28;20092;-63
2023/09/05 12:34:59;;;;;;;2.88;1.50;;;25.70;91.50;;;;;;4989623;28;21102;-65
2023/09/05 12:37:25;;;;;;;3.35;1.00;;;25.70;91.20;;;;;;4987390;28;20071;-64
2023/09/05 12:39:51;;;;;;;1.65;1.02;;;25.70;91.10;;;;;;4988888;28;20045;-63
2023/09/05 12:42:17;;;;;;;1.73;1.20;;;25.70;90.70;;;;;;5000280;28;20042;-64
2023/09/05 12:44:43;;;;;;;4.07;1.30;;;25.70;91.10;;;;;;4993399;28;20100;-64
2023/09/05 12:47:09;;;;;;;1.55;1.10;;;25.70;91.10;;;;;;4995949;28;20050;-64
2023/09/05 12:49:36;;;;;;;1.52;1.20;;;25.80;90.80;;;;;;4994475;28;20042;-63
2023/09/05 12:52:03;;;;;;;1.92;1.27;;;26.00;91.20;;;;;;4987820;28;20098;-63
2023/09/05 12:54:30;;;;;;;2.40;1.20;;;26.10;90.60;;;;;;4992636;28;20038;-64
2023/09/05 12:56:56;;;;;;;3.15;1.00;;;26.10;91.30;;;;;;4989646;28;20050;-64
2023/09/05 12:59:24;;;;;;;3.65;1.00;;;26.20;89.50;;;;;;4986544;28;20050;-64
2023/09/05 13:01:52;;;;;;;3.10;1.33;;;26.20;90.50;;;;;;4986615;28;20521;-65
2023/09/05 13:04:19;;;;;;;2.58;1.50;;;26.20;91.20;;;;;;4986989;28;20047;-64